グアム の空港の天気 - METARとTAF

グアム国際空港 ( PGUM / GUM ) - グアム ハガニア
飛行場実況気象(Metar)
観測時間05/21 07:54 ChST (05/20 21:54 UTC)
風向・風速南南西 3m/s
視程10km以上
天気現象
少しの雲 雲底高度 1460m
全天の4割程度の雲 雲底高度 1980m
気温27.2℃
湿度88%
気圧1010hPa
METARPGUM 202154Z 20005KT 10SM FEW048 SCT065 27/25 A2985 RMK AO2 RAB24E37 SLP100 P0000 T02720250
過去の天気等 Google飛行場航空写真 Wunderground天気予報

過去48時間のMETAR

飛行場予報(TAF)
発表時間: 5/21 03:20 ChST (5/20 17:20 UTC)
予報対象時間: 21日4時 ChST ~ 22日10時 ChST
風向・風速南 5m/s
視程10km以上
天気現象周辺でしゅう雨
少しの雲 雲底高度 550m
全天の4割程度の雲 雲底高度 1220m
全天の4割程度の雲 雲底高度 3050m
21日4時 ChST ~ 21日6時 ChST に一時的に
天気現象弱いしゅう雨
全天の4割程度の雲 雲底高度 490m
全天の8割程度の雲 雲底高度 910m
PGUM 201720Z 2018/2124 18009KT P6SM VCSH FEW018 SCT040 SCT100
TEMPO 2018/2020 -SHRA SCT016 BKN030